sensor_id;sensor_type;location;lat;lon;timestamp;pressure;altitude;pressure_sealevel;temperature;humidity
64713;BME280;51140;45.340;5.980;2023-04-28T00:01:45;98213.13;;;13.67;100.00
64713;BME280;51140;45.340;5.980;2023-04-28T00:04:10;98201.53;;;13.57;100.00
64713;BME280;51140;45.340;5.980;2023-04-28T00:06:36;98186.47;;;13.74;100.00
64713;BME280;51140;45.340;5.980;2023-04-28T00:09:01;98198.63;;;13.75;100.00
64713;BME280;51140;45.340;5.980;2023-04-28T00:11:27;98199.22;;;13.66;100.00
64713;BME280;51140;45.340;5.980;2023-04-28T00:13:53;98188.84;;;13.51;100.00
64713;BME280;51140;45.340;5.980;2023-04-28T00:16:18;98194.38;;;13.46;100.00
64713;BME280;51140;45.340;5.980;2023-04-28T00:18:44;98185.19;;;13.53;100.00
64713;BME280;51140;45.340;5.980;2023-04-28T00:21:09;98170.13;;;13.57;100.00
64713;BME280;51140;45.340;5.980;2023-04-28T00:23:34;98168.59;;;13.40;100.00
64713;BME280;51140;45.340;5.980;2023-04-28T00:26:00;98176.69;;;13.49;100.00
64713;BME280;51140;45.340;5.980;2023-04-28T00:28:25;98169.59;;;13.52;100.00
64713;BME280;51140;45.340;5.980;2023-04-28T00:30:51;98184.25;;;13.54;100.00
64713;BME280;51140;45.340;5.980;2023-04-28T00:33:16;98199.13;;;13.54;100.00
64713;BME280;51140;45.340;5.980;2023-04-28T00:35:41;98197.88;;;13.59;100.00
64713;BME280;51140;45.340;5.980;2023-04-28T00:38:07;98199.41;;;13.63;100.00
64713;BME280;51140;45.340;5.980;2023-04-28T00:40:36;98196.00;;;13.75;100.00
64713;BME280;51140;45.340;5.980;2023-04-28T00:43:02;98204.06;;;13.72;100.00
64713;BME280;51140;45.340;5.980;2023-04-28T00:45:29;98206.38;;;13.77;100.00
64713;BME280;51140;45.340;5.980;2023-04-28T00:47:55;98215.63;;;13.83;100.00
64713;BME280;51140;45.340;5.980;2023-04-28T00:50:21;98222.63;;;13.82;100.00
64713;BME280;51140;45.340;5.980;2023-04-28T00:52:48;98219.91;;;13.84;100.00
64713;BME280;51140;45.340;5.980;2023-04-28T00:55:14;98213.09;;;13.81;100.00
64713;BME280;51140;45.340;5.980;2023-04-28T00:57:41;98201.53;;;13.71;100.00
64713;BME280;51140;45.340;5.980;2023-04-28T01:00:07;98181.94;;;13.49;100.00
64713;BME280;51140;45.340;5.980;2023-04-28T01:02:34;98167.84;;;13.38;100.00
64713;BME280;51140;45.340;5.980;2023-04-28T01:05:00;98158.16;;;13.26;100.00
64713;BME280;51140;45.340;5.980;2023-04-28T01:07:26;98145.63;;;13.31;100.00
64713;BME280;51140;45.340;5.980;2023-04-28T01:09:51;98138.91;;;13.27;100.00
64713;BME280;51140;45.340;5.980;2023-04-28T01:12:16;98141.34;;;13.30;100.00
64713;BME280;51140;45.340;5.980;2023-04-28T01:14:42;98127.22;;;13.32;100.00
64713;BME280;51140;45.340;5.980;2023-04-28T01:17:08;98137.78;;;13.31;100.00
64713;BME280;51140;45.340;5.980;2023-04-28T01:19:34;98129.34;;;13.40;100.00
64713;BME280;51140;45.340;5.980;2023-04-28T01:22:00;98143.50;;;13.23;100.00
64713;BME280;51140;45.340;5.980;2023-04-28T01:24:25;98144.97;;;13.27;100.00
64713;BME280;51140;45.340;5.980;2023-04-28T01:26:50;98156.00;;;13.32;100.00
64713;BME280;51140;45.340;5.980;2023-04-28T01:29:16;98161.63;;;13.26;100.00
64713;BME280;51140;45.340;5.980;2023-04-28T01:31:41;98175.25;;;13.31;100.00
64713;BME280;51140;45.340;5.980;2023-04-28T01:34:06;98181.66;;;13.40;100.00
64713;BME280;51140;45.340;5.980;2023-04-28T01:36:32;98184.38;;;13.38;100.00
64713;BME280;51140;45.340;5.980;2023-04-28T01:38:57;98183.84;;;13.33;100.00
64713;BME280;51140;45.340;5.980;2023-04-28T01:41:23;98168.72;;;13.24;100.00
64713;BME280;51140;45.340;5.980;2023-04-28T01:43:48;98165.25;;;13.24;100.00
64713;BME280;51140;45.340;5.980;2023-04-28T01:46:14;98180.66;;;13.28;100.00
64713;BME280;51140;45.340;5.980;2023-04-28T01:48:40;98179.44;;;13.20;100.00
64713;BME280;51140;45.340;5.980;2023-04-28T01:51:05;98157.94;;;13.00;100.00
64713;BME280;51140;45.340;5.980;2023-04-28T01:53:31;98144.97;;;12.99;100.00
64713;BME280;51140;45.340;5.980;2023-04-28T01:55:56;98143.47;;;12.95;100.00
64713;BME280;51140;45.340;5.980;2023-04-28T01:58:23;98153.66;;;12.99;100.00
64713;BME280;51140;45.340;5.980;2023-04-28T02:00:48;98153.75;;;12.98;100.00
64713;BME280;51140;45.340;5.980;2023-04-28T02:03:13;98163.38;;;12.97;100.00
64713;BME280;51140;45.340;5.980;2023-04-28T02:05:39;98148.97;;;13.04;100.00
64713;BME280;51140;45.340;5.980;2023-04-28T02:08:04;98156.16;;;13.01;100.00
64713;BME280;51140;45.340;5.980;2023-04-28T02:10:29;98170.72;;;13.05;100.00
64713;BME280;51140;45.340;5.980;2023-04-28T02:12:55;98182.16;;;13.18;100.00
64713;BME280;51140;45.340;5.980;2023-04-28T02:15:20;98186.31;;;13.06;100.00
64713;BME280;51140;45.340;5.980;2023-04-28T02:17:46;98198.56;;;13.06;100.00
64713;BME280;51140;45.340;5.980;2023-04-28T02:20:11;98213.88;;;13.12;100.00
64713;BME280;51140;45.340;5.980;2023-04-28T02:22:38;98230.59;;;13.09;100.00
64713;BME280;51140;45.340;5.980;2023-04-28T02:25:04;98211.53;;;13.07;100.00
64713;BME280;51140;45.340;5.980;2023-04-28T02:27:29;98218.16;;;12.84;100.00
64713;BME280;51140;45.340;5.980;2023-04-28T02:29:55;98209.09;;;12.76;100.00
64713;BME280;51140;45.340;5.980;2023-04-28T02:32:20;98195.06;;;12.63;100.00
64713;BME280;51140;45.340;5.980;2023-04-28T02:34:46;98183.47;;;12.52;100.00
64713;BME280;51140;45.340;5.980;2023-04-28T02:37:11;98194.13;;;12.49;100.00
64713;BME280;51140;45.340;5.980;2023-04-28T02:39:36;98180.56;;;12.43;100.00
64713;BME280;51140;45.340;5.980;2023-04-28T02:42:02;98169.22;;;12.28;100.00
64713;BME280;51140;45.340;5.980;2023-04-28T02:44:29;98139.72;;;12.12;100.00
64713;BME280;51140;45.340;5.980;2023-04-28T02:46:55;98138.31;;;12.06;100.00
64713;BME280;51140;45.340;5.980;2023-04-28T02:49:20;98140.25;;;12.03;100.00
64713;BME280;51140;45.340;5.980;2023-04-28T02:51:46;98143.34;;;12.09;100.00
64713;BME280;51140;45.340;5.980;2023-04-28T02:54:11;98146.72;;;12.11;100.00
64713;BME280;51140;45.340;5.980;2023-04-28T02:56:36;98155.97;;;12.17;100.00
64713;BME280;51140;45.340;5.980;2023-04-28T02:59:05;98145.59;;;12.15;100.00
64713;BME280;51140;45.340;5.980;2023-04-28T03:01:30;98151.84;;;12.13;100.00
64713;BME280;51140;45.340;5.980;2023-04-28T03:03:55;98156.88;;;12.16;100.00
64713;BME280;51140;45.340;5.980;2023-04-28T03:06:21;98170.69;;;12.18;100.00
64713;BME280;51140;45.340;5.980;2023-04-28T03:08:46;98177.50;;;12.20;100.00
64713;BME280;51140;45.340;5.980;2023-04-28T03:11:12;98186.28;;;12.19;100.00
64713;BME280;51140;45.340;5.980;2023-04-28T03:13:37;98179.28;;;12.20;100.00
64713;BME280;51140;45.340;5.980;2023-04-28T03:16:02;98167.06;;;12.20;100.00
64713;BME280;51140;45.340;5.980;2023-04-28T03:18:28;98161.94;;;12.19;100.00
64713;BME280;51140;45.340;5.980;2023-04-28T03:20:53;98163.56;;;12.06;100.00
64713;BME280;51140;45.340;5.980;2023-04-28T03:23:19;98153.63;;;11.97;100.00
64713;BME280;51140;45.340;5.980;2023-04-28T03:25:44;98135.06;;;11.87;100.00
64713;BME280;51140;45.340;5.980;2023-04-28T03:28:09;98124.06;;;11.96;100.00
64713;BME280;51140;45.340;5.980;2023-04-28T03:30:35;98125.00;;;11.95;100.00
64713;BME280;51140;45.340;5.980;2023-04-28T03:33:01;98119.78;;;11.95;100.00
64713;BME280;51140;45.340;5.980;2023-04-28T03:35:26;98124.25;;;11.93;100.00
64713;BME280;51140;45.340;5.980;2023-04-28T03:37:52;98113.59;;;11.82;100.00
64713;BME280;51140;45.340;5.980;2023-04-28T03:40:17;98130.41;;;11.76;100.00
64713;BME280;51140;45.340;5.980;2023-04-28T03:42:43;98121.09;;;11.72;100.00
64713;BME280;51140;45.340;5.980;2023-04-28T03:45:08;98115.88;;;11.72;100.00
64713;BME280;51140;45.340;5.980;2023-04-28T03:47:35;98122.00;;;11.71;100.00
64713;BME280;51140;45.340;5.980;2023-04-28T03:50:01;98129.50;;;11.77;100.00
64713;BME280;51140;45.340;5.980;2023-04-28T03:52:26;98132.63;;;11.84;100.00
64713;BME280;51140;45.340;5.980;2023-04-28T03:54:51;98137.56;;;11.88;100.00
64713;BME280;51140;45.340;5.980;2023-04-28T03:57:17;98146.56;;;11.99;100.00
64713;BME280;51140;45.340;5.980;2023-04-28T03:59:42;98147.06;;;12.05;100.00
64713;BME280;51140;45.340;5.980;2023-04-28T04:02:08;98149.16;;;11.99;100.00
64713;BME280;51140;45.340;5.980;2023-04-28T04:04:33;98137.78;;;12.00;100.00
64713;BME280;51140;45.340;5.980;2023-04-28T04:06:59;98133.94;;;12.07;100.00
64713;BME280;51140;45.340;5.980;2023-04-28T04:09:24;98144.75;;;12.15;100.00
64713;BME280;51140;45.340;5.980;2023-04-28T04:11:50;98155.50;;;12.24;100.00
64713;BME280;51140;45.340;5.980;2023-04-28T04:14:15;98172.59;;;12.30;100.00
64713;BME280;51140;45.340;5.980;2023-04-28T04:16:41;98176.78;;;12.33;100.00
64713;BME280;51140;45.340;5.980;2023-04-28T04:19:06;98173.44;;;12.31;100.00
64713;BME280;51140;45.340;5.980;2023-04-28T04:21:32;98146.25;;;12.19;100.00
64713;BME280;51140;45.340;5.980;2023-04-28T04:23:57;98133.03;;;12.22;100.00
64713;BME280;51140;45.340;5.980;2023-04-28T04:26:22;98097.00;;;12.13;100.00
64713;BME280;51140;45.340;5.980;2023-04-28T04:28:48;98091.13;;;12.09;100.00
64713;BME280;51140;45.340;5.980;2023-04-28T04:31:13;98082.47;;;12.09;100.00
64713;BME280;51140;45.340;5.980;2023-04-28T04:33:39;98076.50;;;12.07;100.00
64713;BME280;51140;45.340;5.980;2023-04-28T04:36:05;98060.31;;;12.00;100.00
64713;BME280;51140;45.340;5.980;2023-04-28T04:38:30;98047.31;;;12.14;100.00
64713;BME280;51140;45.340;5.980;2023-04-28T04:40:56;98056.72;;;12.31;100.00
64713;BME280;51140;45.340;5.980;2023-04-28T04:43:21;98060.19;;;12.32;100.00
64713;BME280;51140;45.340;5.980;2023-04-28T04:45:46;98037.34;;;12.21;100.00
64713;BME280;51140;45.340;5.980;2023-04-28T04:48:12;98028.56;;;12.08;100.00
64713;BME280;51140;45.340;5.980;2023-04-28T04:50:38;97998.22;;;11.91;100.00
64713;BME280;51140;45.340;5.980;2023-04-28T04:53:03;97983.22;;;11.95;100.00
64713;BME280;51140;45.340;5.980;2023-04-28T04:55:29;97988.84;;;12.17;100.00
64713;BME280;51140;45.340;5.980;2023-04-28T04:57:54;98005.25;;;12.33;100.00
64713;BME280;51140;45.340;5.980;2023-04-28T05:00:20;98022.91;;;12.44;100.00
64713;BME280;51140;45.340;5.980;2023-04-28T05:02:46;98029.22;;;12.40;100.00
64713;BME280;51140;45.340;5.980;2023-04-28T05:05:11;98031.16;;;12.36;100.00
64713;BME280;51140;45.340;5.980;2023-04-28T05:07:36;98045.94;;;12.51;100.00
64713;BME280;51140;45.340;5.980;2023-04-28T05:10:02;98052.06;;;12.65;100.00
64713;BME280;51140;45.340;5.980;2023-04-28T05:12:27;98067.00;;;12.63;100.00
64713;BME280;51140;45.340;5.980;2023-04-28T05:14:52;98070.47;;;12.63;100.00
64713;BME280;51140;45.340;5.980;2023-04-28T05:17:18;98075.88;;;12.60;100.00
64713;BME280;51140;45.340;5.980;2023-04-28T05:19:43;98082.22;;;12.70;100.00
64713;BME280;51140;45.340;5.980;2023-04-28T05:22:09;98109.19;;;12.99;100.00
64713;BME280;51140;45.340;5.980;2023-04-28T05:24:35;98131.34;;;13.22;100.00
64713;BME280;51140;45.340;5.980;2023-04-28T05:27:01;98164.66;;;13.04;100.00
64713;BME280;51140;45.340;5.980;2023-04-28T05:29:26;98170.19;;;13.00;100.00
64713;BME280;51140;45.340;5.980;2023-04-28T05:31:51;98175.13;;;12.90;100.00
64713;BME280;51140;45.340;5.980;2023-04-28T05:34:17;98169.16;;;12.88;100.00
64713;BME280;51140;45.340;5.980;2023-04-28T05:36:43;98174.38;;;12.88;100.00
64713;BME280;51140;45.340;5.980;2023-04-28T05:39:08;98176.44;;;12.83;100.00
64713;BME280;51140;45.340;5.980;2023-04-28T05:41:34;98179.91;;;12.83;100.00
64713;BME280;51140;45.340;5.980;2023-04-28T05:44:01;98159.59;;;12.73;100.00
64713;BME280;51140;45.340;5.980;2023-04-28T05:46:26;98114.25;;;12.45;100.00
64713;BME280;51140;45.340;5.980;2023-04-28T05:48:51;98103.97;;;12.42;100.00
64713;BME280;51140;45.340;5.980;2023-04-28T05:51:17;98085.19;;;12.36;100.00
64713;BME280;51140;45.340;5.980;2023-04-28T05:53:42;98078.88;;;12.82;100.00
64713;BME280;51140;45.340;5.980;2023-04-28T05:56:07;98086.78;;;13.24;100.00
64713;BME280;51140;45.340;5.980;2023-04-28T05:58:33;98095.97;;;13.70;100.00
64713;BME280;51140;45.340;5.980;2023-04-28T06:00:58;98118.19;;;13.77;100.00
64713;BME280;51140;45.340;5.980;2023-04-28T06:03:24;98134.78;;;13.91;100.00
64713;BME280;51140;45.340;5.980;2023-04-28T06:05:49;98138.41;;;14.02;100.00
64713;BME280;51140;45.340;5.980;2023-04-28T06:08:15;98135.47;;;14.07;100.00
64713;BME280;51140;45.340;5.980;2023-04-28T06:10:40;98133.72;;;13.80;100.00
64713;BME280;51140;45.340;5.980;2023-04-28T06:13:05;98131.22;;;13.92;100.00
64713;BME280;51140;45.340;5.980;2023-04-28T06:15:32;98158.94;;;14.08;100.00
64713;BME280;51140;45.340;5.980;2023-04-28T06:17:57;98163.38;;;13.94;100.00
64713;BME280;51140;45.340;5.980;2023-04-28T06:20:26;98179.69;;;14.11;100.00
64713;BME280;51140;45.340;5.980;2023-04-28T06:22:51;98182.09;;;14.41;100.00
64713;BME280;51140;45.340;5.980;2023-04-28T06:25:17;98190.91;;;14.14;100.00
64713;BME280;51140;45.340;5.980;2023-04-28T06:27:42;98183.28;;;13.96;100.00
64713;BME280;51140;45.340;5.980;2023-04-28T06:30:08;98150.28;;;13.94;100.00
64713;BME280;51140;45.340;5.980;2023-04-28T06:32:33;98136.31;;;14.60;100.00
64713;BME280;51140;45.340;5.980;2023-04-28T06:34:59;98157.47;;;15.08;100.00
64713;BME280;51140;45.340;5.980;2023-04-28T06:37:24;98176.34;;;15.13;100.00
64713;BME280;51140;45.340;5.980;2023-04-28T06:39:50;98212.25;;;14.87;100.00
64713;BME280;51140;45.340;5.980;2023-04-28T06:42:15;98248.25;;;14.97;100.00
64713;BME280;51140;45.340;5.980;2023-04-28T06:44:43;98267.78;;;15.31;100.00
64713;BME280;51140;45.340;5.980;2023-04-28T06:47:09;98281.09;;;15.41;100.00
64713;BME280;51140;45.340;5.980;2023-04-28T06:49:34;98288.44;;;15.11;100.00
64713;BME280;51140;45.340;5.980;2023-04-28T06:52:00;98289.63;;;15.32;100.00
64713;BME280;51140;45.340;5.980;2023-04-28T06:54:25;98289.47;;;15.84;100.00
64713;BME280;51140;45.340;5.980;2023-04-28T06:56:51;98311.66;;;15.29;100.00
64713;BME280;51140;45.340;5.980;2023-04-28T06:59:16;98302.94;;;15.03;100.00
64713;BME280;51140;45.340;5.980;2023-04-28T07:01:42;98303.41;;;15.61;100.00
64713;BME280;51140;45.340;5.980;2023-04-28T07:04:07;98300.63;;;15.88;100.00
64713;BME280;51140;45.340;5.980;2023-04-28T07:06:32;98298.84;;;16.49;100.00
64713;BME280;51140;45.340;5.980;2023-04-28T07:08:58;98306.75;;;17.08;100.00
64713;BME280;51140;45.340;5.980;2023-04-28T07:11:23;98316.44;;;16.72;100.00
64713;BME280;51140;45.340;5.980;2023-04-28T07:13:49;98317.38;;;16.47;100.00
64713;BME280;51140;45.340;5.980;2023-04-28T07:16:16;98320.63;;;16.51;100.00
64713;BME280;51140;45.340;5.980;2023-04-28T07:18:42;98320.47;;;17.00;100.00
64713;BME280;51140;45.340;5.980;2023-04-28T07:21:08;98315.13;;;17.81;100.00
64713;BME280;51140;45.340;5.980;2023-04-28T07:23:33;98322.50;;;17.54;100.00
64713;BME280;51140;45.340;5.980;2023-04-28T07:25:58;98318.31;;;17.40;100.00
64713;BME280;51140;45.340;5.980;2023-04-28T07:28:24;98311.00;;;17.33;100.00
64713;BME280;51140;45.340;5.980;2023-04-28T07:30:50;98312.19;;;16.82;100.00
64713;BME280;51140;45.340;5.980;2023-04-28T07:33:18;98305.72;;;16.63;100.00
64713;BME280;51140;45.340;5.980;2023-04-28T07:35:43;98307.41;;;16.64;100.00
64713;BME280;51140;45.340;5.980;2023-04-28T07:38:09;98311.16;;;16.96;100.00
64713;BME280;51140;45.340;5.980;2023-04-28T07:40:34;98319.28;;;17.04;100.00
64713;BME280;51140;45.340;5.980;2023-04-28T07:43:00;98317.28;;;17.08;100.00
64713;BME280;51140;45.340;5.980;2023-04-28T07:45:25;98320.34;;;16.90;100.00
64713;BME280;51140;45.340;5.980;2023-04-28T07:47:51;98320.03;;;16.58;100.00
64713;BME280;51140;45.340;5.980;2023-04-28T07:50:16;98318.59;;;16.78;100.00
64713;BME280;51140;45.340;5.980;2023-04-28T07:52:42;98311.88;;;16.98;100.00
64713;BME280;51140;45.340;5.980;2023-04-28T07:55:07;98318.41;;;16.81;100.00
64713;BME280;51140;45.340;5.980;2023-04-28T07:57:34;98315.06;;;17.48;100.00
64713;BME280;51140;45.340;5.980;2023-04-28T07:59:59;98307.41;;;17.56;100.00
64713;BME280;51140;45.340;5.980;2023-04-28T08:02:24;98315.75;;;18.39;100.00
64713;BME280;51140;45.340;5.980;2023-04-28T08:04:51;98305.00;;;19.79;100.00
64713;BME280;51140;45.340;5.980;2023-04-28T08:07:16;98267.84;;;22.01;100.00
64713;BME280;51140;45.340;5.980;2023-04-28T08:09:42;98279.53;;;22.35;100.00
64713;BME280;51140;45.340;5.980;2023-04-28T08:12:11;98214.41;;;24.63;100.00
64713;BME280;51140;45.340;5.980;2023-04-28T08:14:37;98201.34;;;25.41;100.00
64713;BME280;51140;45.340;5.980;2023-04-28T08:17:02;98160.09;;;27.79;100.00
64713;BME280;51140;45.340;5.980;2023-04-28T08:19:28;98225.28;;;27.04;100.00
64713;BME280;51140;45.340;5.980;2023-04-28T08:21:53;98208.38;;;28.22;100.00
64713;BME280;51140;45.340;5.980;2023-04-28T08:24:18;98191.16;;;29.51;100.00
64713;BME280;51140;45.340;5.980;2023-04-28T08:26:44;98196.81;;;29.62;100.00
64713;BME280;51140;45.340;5.980;2023-04-28T08:29:09;98190.09;;;29.17;100.00
64713;BME280;51140;45.340;5.980;2023-04-28T08:31:35;98152.66;;;31.90;100.00
64713;BME280;51140;45.340;5.980;2023-04-28T08:34:00;98135.47;;;34.25;100.00
64713;BME280;51140;45.340;5.980;2023-04-28T08:36:25;98159.59;;;32.73;100.00
64713;BME280;51140;45.340;5.980;2023-04-28T08:38:55;98151.75;;;32.40;100.00
64713;BME280;51140;45.340;5.980;2023-04-28T08:41:23;98185.50;;;28.83;100.00
64713;BME280;51140;45.340;5.980;2023-04-28T08:43:51;98205.63;;;27.64;100.00
64713;BME280;51140;45.340;5.980;2023-04-28T08:46:17;98224.66;;;26.03;100.00
64713;BME280;51140;45.340;5.980;2023-04-28T08:48:45;98205.34;;;26.69;100.00
64713;BME280;51140;45.340;5.980;2023-04-28T08:51:15;98208.88;;;26.16;100.00
64713;BME280;51140;45.340;5.980;2023-04-28T08:53:43;98215.75;;;27.39;100.00
64713;BME280;51140;45.340;5.980;2023-04-28T08:56:09;98250.06;;;25.27;100.00
64713;BME280;51140;45.340;5.980;2023-04-28T08:58:38;98240.22;;;25.19;100.00
64713;BME280;51140;45.340;5.980;2023-04-28T09:01:04;98232.28;;;25.58;100.00
64713;BME280;51140;45.340;5.980;2023-04-28T09:03:30;98223.81;;;26.56;100.00
64713;BME280;51140;45.340;5.980;2023-04-28T09:05:57;98225.56;;;25.79;100.00
64713;BME280;51140;45.340;5.980;2023-04-28T09:08:22;98215.72;;;26.87;100.00
64713;BME280;51140;45.340;5.980;2023-04-28T09:11:04;98226.78;;;26.84;100.00
64713;BME280;51140;45.340;5.980;2023-04-28T09:13:30;98223.00;;;27.16;100.00
64713;BME280;51140;45.340;5.980;2023-04-28T09:16:00;98230.03;;;27.46;100.00
64713;BME280;51140;45.340;5.980;2023-04-28T09:18:27;98227.50;;;27.15;100.00
64713;BME280;51140;45.340;5.980;2023-04-28T09:21:01;98179.34;;;29.93;100.00
64713;BME280;51140;45.340;5.980;2023-04-28T09:23:27;98201.91;;;28.74;100.00
64713;BME280;51140;45.340;5.980;2023-04-28T09:28:24;98254.06;;;24.90;100.00
64713;BME280;51140;45.340;5.980;2023-04-28T09:30:49;98289.69;;;23.55;100.00
64713;BME280;51140;45.340;5.980;2023-04-28T09:33:15;98290.59;;;23.20;100.00
64713;BME280;51140;45.340;5.980;2023-04-28T09:35:41;98295.31;;;23.52;100.00
64713;BME280;51140;45.340;5.980;2023-04-28T09:38:08;98297.22;;;22.80;100.00
64713;BME280;51140;45.340;5.980;2023-04-28T09:40:51;98248.19;;;23.96;100.00
64713;BME280;51140;45.340;5.980;2023-04-28T09:43:32;98212.22;;;26.87;100.00
64713;BME280;51140;45.340;5.980;2023-04-28T09:46:02;98180.13;;;29.39;100.00
64713;BME280;51140;45.340;5.980;2023-04-28T09:48:33;98188.44;;;27.44;100.00
64713;BME280;51140;45.340;5.980;2023-04-28T09:51:01;98225.06;;;24.71;100.00
64713;BME280;51140;45.340;5.980;2023-04-28T09:53:28;98201.94;;;26.30;100.00
64713;BME280;51140;45.340;5.980;2023-04-28T09:55:55;98201.63;;;25.63;100.00
64713;BME280;51140;45.340;5.980;2023-04-28T09:58:23;98195.84;;;25.90;100.00
64713;BME280;51140;45.340;5.980;2023-04-28T10:00:57;98212.41;;;24.89;100.00
64713;BME280;51140;45.340;5.980;2023-04-28T10:03:25;98217.91;;;23.97;100.00
64713;BME280;51140;45.340;5.980;2023-04-28T10:05:50;98202.09;;;26.05;100.00
64713;BME280;51140;45.340;5.980;2023-04-28T10:08:21;98201.97;;;25.68;100.00
64713;BME280;51140;45.340;5.980;2023-04-28T10:10:48;98207.91;;;25.06;100.00
64713;BME280;51140;45.340;5.980;2023-04-28T10:13:17;98206.59;;;24.61;100.00
64713;BME280;51140;45.340;5.980;2023-04-28T10:15:44;98192.03;;;25.37;100.00
64713;BME280;51140;45.340;5.980;2023-04-28T10:18:11;98184.50;;;25.88;100.00
64713;BME280;51140;45.340;5.980;2023-04-28T10:20:37;98191.00;;;25.46;100.00
64713;BME280;51140;45.340;5.980;2023-04-28T10:25:41;98192.34;;;25.89;100.00
64713;BME280;51140;45.340;5.980;2023-04-28T10:28:07;98198.22;;;25.21;100.00
64713;BME280;51140;45.340;5.980;2023-04-28T10:30:33;98198.28;;;25.52;100.00
64713;BME280;51140;45.340;5.980;2023-04-28T10:40:34;98156.38;;;26.54;100.00
64713;BME280;51140;45.340;5.980;2023-04-28T10:43:01;98147.19;;;27.53;100.00
64713;BME280;51140;45.340;5.980;2023-04-28T10:48:50;98160.38;;;26.73;100.00
64713;BME280;51140;45.340;5.980;2023-04-28T10:56:12;98165.63;;;25.67;100.00
64713;BME280;51140;45.340;5.980;2023-04-28T10:58:39;98150.09;;;25.93;100.00
64713;BME280;51140;45.340;5.980;2023-04-28T11:08:58;98135.09;;;25.69;100.00
64713;BME280;51140;45.340;5.980;2023-04-28T11:11:31;98128.50;;;26.71;100.00
64713;BME280;51140;45.340;5.980;2023-04-28T11:16:53;98135.81;;;25.47;100.00
64713;BME280;51140;45.340;5.980;2023-04-28T11:19:21;98140.75;;;26.20;100.00
64713;BME280;51140;45.340;5.980;2023-04-28T11:21:48;98131.63;;;26.14;100.00
64713;BME280;51140;45.340;5.980;2023-04-28T11:24:14;98143.19;;;25.37;100.00
64713;BME280;51140;45.340;5.980;2023-04-28T11:26:40;98147.16;;;24.61;100.00
64713;BME280;51140;45.340;5.980;2023-04-28T11:29:06;98132.41;;;25.30;100.00
64713;BME280;51140;45.340;5.980;2023-04-28T11:31:32;98123.78;;;26.13;100.00
64713;BME280;51140;45.340;5.980;2023-04-28T11:34:02;98116.47;;;25.84;100.00
64713;BME280;51140;45.340;5.980;2023-04-28T11:36:34;98108.47;;;25.84;100.00
64713;BME280;51140;45.340;5.980;2023-04-28T11:39:01;98119.59;;;25.56;100.00
64713;BME280;51140;45.340;5.980;2023-04-28T11:41:26;98109.41;;;25.91;100.00
64713;BME280;51140;45.340;5.980;2023-04-28T11:43:52;98101.03;;;26.48;100.00
64713;BME280;51140;45.340;5.980;2023-04-28T11:46:19;98101.13;;;26.69;100.00
64713;BME280;51140;45.340;5.980;2023-04-28T11:48:45;98093.38;;;26.60;100.00
64713;BME280;51140;45.340;5.980;2023-04-28T11:51:33;98098.75;;;25.91;100.00
64713;BME280;51140;45.340;5.980;2023-04-28T11:53:59;98098.88;;;25.75;100.00
64713;BME280;51140;45.340;5.980;2023-04-28T11:56:26;98095.84;;;24.75;100.00
64713;BME280;51140;45.340;5.980;2023-04-28T11:58:59;98078.22;;;24.82;100.00
64713;BME280;51140;45.340;5.980;2023-04-28T12:01:25;98090.53;;;24.83;100.00
64713;BME280;51140;45.340;5.980;2023-04-28T12:03:51;98087.59;;;25.17;100.00
64713;BME280;51140;45.340;5.980;2023-04-28T12:06:17;98084.28;;;25.15;100.00
64713;BME280;51140;45.340;5.980;2023-04-28T12:08:43;98061.50;;;24.96;100.00
64713;BME280;51140;45.340;5.980;2023-04-28T12:11:10;98071.16;;;25.76;100.00
64713;BME280;51140;45.340;5.980;2023-04-28T12:13:37;98043.47;;;26.00;100.00
64713;BME280;51140;45.340;5.980;2023-04-28T12:16:04;98040.56;;;26.09;100.00
64713;BME280;51140;45.340;5.980;2023-04-28T12:18:42;98052.25;;;26.08;100.00
64713;BME280;51140;45.340;5.980;2023-04-28T12:21:20;98051.72;;;25.59;100.00
64713;BME280;51140;45.340;5.980;2023-04-28T12:23:45;98047.03;;;25.92;100.00
64713;BME280;51140;45.340;5.980;2023-04-28T12:26:11;98037.78;;;25.80;100.00
64713;BME280;51140;45.340;5.980;2023-04-28T12:28:38;98032.03;;;25.91;100.00
64713;BME280;51140;45.340;5.980;2023-04-28T12:31:05;98035.41;;;26.08;100.00
64713;BME280;51140;45.340;5.980;2023-04-28T12:33:33;98048.78;;;26.00;100.00
64713;BME280;51140;45.340;5.980;2023-04-28T12:36:02;98028.31;;;26.38;100.00
64713;BME280;51140;45.340;5.980;2023-04-28T12:38:28;98033.34;;;26.33;100.00
64713;BME280;51140;45.340;5.980;2023-04-28T12:40:54;98024.88;;;25.69;100.00
64713;BME280;51140;45.340;5.980;2023-04-28T12:43:20;98029.16;;;26.15;100.00
64713;BME280;51140;45.340;5.980;2023-04-28T12:45:50;98017.63;;;26.38;100.00
64713;BME280;51140;45.340;5.980;2023-04-28T12:48:17;98010.56;;;26.89;100.00
64713;BME280;51140;45.340;5.980;2023-04-28T12:50:42;97998.06;;;26.22;100.00
64713;BME280;51140;45.340;5.980;2023-04-28T12:53:08;98004.31;;;26.30;100.00
64713;BME280;51140;45.340;5.980;2023-04-28T12:55:33;98003.66;;;26.65;100.00
64713;BME280;51140;45.340;5.980;2023-04-28T12:57:58;98002.97;;;26.34;100.00
64713;BME280;51140;45.340;5.980;2023-04-28T13:00:24;98003.75;;;26.57;100.00
64713;BME280;51140;45.340;5.980;2023-04-28T13:02:49;98002.19;;;26.63;100.00
64713;BME280;51140;45.340;5.980;2023-04-28T13:05:15;97989.56;;;26.86;100.00
64713;BME280;51140;45.340;5.980;2023-04-28T13:07:41;97997.34;;;27.17;100.00
64713;BME280;51140;45.340;5.980;2023-04-28T13:10:09;97995.81;;;27.08;100.00
64713;BME280;51140;45.340;5.980;2023-04-28T13:12:34;97985.25;;;27.21;100.00
64713;BME280;51140;45.340;5.980;2023-04-28T13:15:01;97985.44;;;27.34;100.00
64713;BME280;51140;45.340;5.980;2023-04-28T13:17:27;97982.25;;;27.45;100.00